sensor_id;sensor_type;location;lat;lon;timestamp;pressure;altitude;pressure_sealevel;temperature
55038;BMP280;40937;53.594;10.034;2024-03-02T00:00:49;100571.88;;;10.28
55038;BMP280;40937;53.594;10.034;2024-03-02T00:03:18;100573.50;;;10.29
55038;BMP280;40937;53.594;10.034;2024-03-02T00:05:49;100575.53;;;10.27
55038;BMP280;40937;53.594;10.034;2024-03-02T00:08:23;100571.31;;;10.26
55038;BMP280;40937;53.594;10.034;2024-03-02T00:10:51;100570.88;;;10.17
55038;BMP280;40937;53.594;10.034;2024-03-02T00:13:20;100566.38;;;10.18
55038;BMP280;40937;53.594;10.034;2024-03-02T00:15:52;100567.00;;;10.20
55038;BMP280;40937;53.594;10.034;2024-03-02T00:18:20;100558.84;;;10.09
55038;BMP280;40937;53.594;10.034;2024-03-02T00:20:48;100564.47;;;10.13
55038;BMP280;40937;53.594;10.034;2024-03-02T00:23:16;100564.34;;;10.20
55038;BMP280;40937;53.594;10.034;2024-03-02T00:25:49;100563.19;;;10.16
55038;BMP280;40937;53.594;10.034;2024-03-02T00:28:20;100557.91;;;10.16
55038;BMP280;40937;53.594;10.034;2024-03-02T00:30:54;100554.59;;;10.20
55038;BMP280;40937;53.594;10.034;2024-03-02T00:33:22;100553.66;;;10.14
55038;BMP280;40937;53.594;10.034;2024-03-02T00:35:49;100549.94;;;10.10
55038;BMP280;40937;53.594;10.034;2024-03-02T00:38:19;100550.63;;;9.94
55038;BMP280;40937;53.594;10.034;2024-03-02T00:40:47;100550.50;;;10.01
55038;BMP280;40937;53.594;10.034;2024-03-02T00:43:40;100543.88;;;9.86
55038;BMP280;40937;53.594;10.034;2024-03-02T00:46:08;100540.34;;;9.81
55038;BMP280;40937;53.594;10.034;2024-03-02T00:48:36;100546.75;;;9.85
55038;BMP280;40937;53.594;10.034;2024-03-02T00:51:03;100537.25;;;9.84
55038;BMP280;40937;53.594;10.034;2024-03-02T00:53:32;100540.69;;;9.84
55038;BMP280;40937;53.594;10.034;2024-03-02T00:56:01;100536.81;;;9.87
55038;BMP280;40937;53.594;10.034;2024-03-02T00:58:28;100539.06;;;9.95
55038;BMP280;40937;53.594;10.034;2024-03-02T01:00:55;100540.53;;;9.91
55038;BMP280;40937;53.594;10.034;2024-03-02T01:03:23;100531.28;;;9.77
55038;BMP280;40937;53.594;10.034;2024-03-02T01:05:50;100538.84;;;9.73
55038;BMP280;40937;53.594;10.034;2024-03-02T01:08:17;100534.81;;;9.70
55038;BMP280;40937;53.594;10.034;2024-03-02T01:10:44;100543.31;;;9.72
55038;BMP280;40937;53.594;10.034;2024-03-02T01:13:13;100544.47;;;9.77
55038;BMP280;40937;53.594;10.034;2024-03-02T01:15:40;100549.38;;;9.85
55038;BMP280;40937;53.594;10.034;2024-03-02T01:18:07;100547.88;;;9.89
55038;BMP280;40937;53.594;10.034;2024-03-02T01:20:35;100550.75;;;9.76
55038;BMP280;40937;53.594;10.034;2024-03-02T01:23:02;100552.22;;;9.83
55038;BMP280;40937;53.594;10.034;2024-03-02T01:25:29;100551.53;;;9.88
55038;BMP280;40937;53.594;10.034;2024-03-02T01:27:56;100552.69;;;9.92
55038;BMP280;40937;53.594;10.034;2024-03-02T01:30:25;100548.59;;;9.96
55038;BMP280;40937;53.594;10.034;2024-03-02T01:32:52;100543.19;;;9.91
55038;BMP280;40937;53.594;10.034;2024-03-02T01:35:19;100549.03;;;9.93
55038;BMP280;40937;53.594;10.034;2024-03-02T01:37:46;100548.22;;;9.92
55038;BMP280;40937;53.594;10.034;2024-03-02T01:40:14;100545.16;;;9.84
55038;BMP280;40937;53.594;10.034;2024-03-02T01:42:41;100544.47;;;9.77
55038;BMP280;40937;53.594;10.034;2024-03-02T01:45:10;100543.06;;;9.74
55038;BMP280;40937;53.594;10.034;2024-03-02T01:47:38;100529.81;;;9.81
55038;BMP280;40937;53.594;10.034;2024-03-02T01:50:07;100539.19;;;9.77
55038;BMP280;40937;53.594;10.034;2024-03-02T01:52:34;100534.47;;;9.79
55038;BMP280;40937;53.594;10.034;2024-03-02T01:55:02;100540.34;;;9.81
55038;BMP280;40937;53.594;10.034;2024-03-02T01:57:29;100535.88;;;9.81
55038;BMP280;40937;53.594;10.034;2024-03-02T01:59:56;100537.81;;;9.86
55038;BMP280;40937;53.594;10.034;2024-03-02T02:02:24;100538.72;;;9.91
55038;BMP280;40937;53.594;10.034;2024-03-02T02:04:53;100533.78;;;9.83
55038;BMP280;40937;53.594;10.034;2024-03-02T02:07:20;100533.00;;;9.83
55038;BMP280;40937;53.594;10.034;2024-03-02T02:09:48;100530.28;;;9.78
55038;BMP280;40937;53.594;10.034;2024-03-02T02:12:16;100527.16;;;9.81
55038;BMP280;40937;53.594;10.034;2024-03-02T02:14:47;100531.19;;;9.71
55038;BMP280;40937;53.594;10.034;2024-03-02T02:17:15;100522.81;;;9.63
55038;BMP280;40937;53.594;10.034;2024-03-02T02:19:42;100527.50;;;9.72
55038;BMP280;40937;53.594;10.034;2024-03-02T02:22:11;100522.22;;;9.72
55038;BMP280;40937;53.594;10.034;2024-03-02T02:24:40;100520.53;;;9.66
55038;BMP280;40937;53.594;10.034;2024-03-02T02:27:07;100521.44;;;9.72
55038;BMP280;40937;53.594;10.034;2024-03-02T02:29:34;100510.09;;;9.71
55038;BMP280;40937;53.594;10.034;2024-03-02T02:32:02;100519.03;;;9.70
55038;BMP280;40937;53.594;10.034;2024-03-02T02:34:29;100511.25;;;9.76
55038;BMP280;40937;53.594;10.034;2024-03-02T02:36:56;100504.84;;;9.60
55038;BMP280;40937;53.594;10.034;2024-03-02T02:39:25;100510.22;;;9.53
55038;BMP280;40937;53.594;10.034;2024-03-02T02:41:52;100512.84;;;9.53
55038;BMP280;40937;53.594;10.034;2024-03-02T02:44:19;100504.34;;;9.51
55038;BMP280;40937;53.594;10.034;2024-03-02T02:46:46;100505.44;;;9.50
55038;BMP280;40937;53.594;10.034;2024-03-02T02:49:13;100498.19;;;9.57
55038;BMP280;40937;53.594;10.034;2024-03-02T02:51:40;100501.75;;;9.63
55038;BMP280;40937;53.594;10.034;2024-03-02T02:54:07;100492.94;;;9.57
55038;BMP280;40937;53.594;10.034;2024-03-02T02:56:36;100501.44;;;9.59
55038;BMP280;40937;53.594;10.034;2024-03-02T02:59:03;100497.97;;;9.59
55038;BMP280;40937;53.594;10.034;2024-03-02T03:01:30;100484.00;;;9.58
55038;BMP280;40937;53.594;10.034;2024-03-02T03:03:57;100487.09;;;9.55
55038;BMP280;40937;53.594;10.034;2024-03-02T03:06:25;100496.16;;;9.59
55038;BMP280;40937;53.594;10.034;2024-03-02T03:08:52;100494.63;;;9.63
55038;BMP280;40937;53.594;10.034;2024-03-02T03:11:19;100491.69;;;9.60
55038;BMP280;40937;53.594;10.034;2024-03-02T03:13:49;100497.25;;;9.63
55038;BMP280;40937;53.594;10.034;2024-03-02T03:16:17;100502.22;;;9.60
55038;BMP280;40937;53.594;10.034;2024-03-02T03:18:44;100505.31;;;9.57
55038;BMP280;40937;53.594;10.034;2024-03-02T03:21:11;100500.84;;;9.57
55038;BMP280;40937;53.594;10.034;2024-03-02T03:23:38;100499.81;;;9.58
55038;BMP280;40937;53.594;10.034;2024-03-02T03:26:05;100501.88;;;9.56
55038;BMP280;40937;53.594;10.034;2024-03-02T03:28:32;100494.44;;;9.53
55038;BMP280;40937;53.594;10.034;2024-03-02T03:31:01;100498.19;;;9.57
55038;BMP280;40937;53.594;10.034;2024-03-02T03:33:29;100493.75;;;9.58
55038;BMP280;40937;53.594;10.034;2024-03-02T03:35:56;100492.81;;;9.52
55038;BMP280;40937;53.594;10.034;2024-03-02T03:38:23;100497.53;;;9.50
55038;BMP280;40937;53.594;10.034;2024-03-02T03:40:50;100496.81;;;9.43
55038;BMP280;40937;53.594;10.034;2024-03-02T03:43:17;100497.06;;;9.53
55038;BMP280;40937;53.594;10.034;2024-03-02T03:45:45;100498.78;;;9.59
55038;BMP280;40937;53.594;10.034;2024-03-02T03:48:14;100502.31;;;9.53
55038;BMP280;40937;53.594;10.034;2024-03-02T03:50:41;100499.44;;;9.43
55038;BMP280;40937;53.594;10.034;2024-03-02T03:53:08;100496.59;;;9.44
55038;BMP280;40937;53.594;10.034;2024-03-02T03:55:35;100493.97;;;9.44
55038;BMP280;40937;53.594;10.034;2024-03-02T03:58:03;100494.31;;;9.48
55038;BMP280;40937;53.594;10.034;2024-03-02T04:00:30;100493.72;;;9.46
55038;BMP280;40937;53.594;10.034;2024-03-02T04:02:57;100490.19;;;9.52
55038;BMP280;40937;53.594;10.034;2024-03-02T04:05:25;100487.00;;;9.50
55038;BMP280;40937;53.594;10.034;2024-03-02T04:07:53;100482.28;;;9.52
55038;BMP280;40937;53.594;10.034;2024-03-02T04:10:20;100480.13;;;9.49
55038;BMP280;40937;53.594;10.034;2024-03-02T04:12:49;100475.66;;;9.49
55038;BMP280;40937;53.594;10.034;2024-03-02T04:15:16;100482.53;;;9.50
55038;BMP280;40937;53.594;10.034;2024-03-02T04:17:44;100485.38;;;9.49
55038;BMP280;40937;53.594;10.034;2024-03-02T04:20:12;100482.84;;;9.54
55038;BMP280;40937;53.594;10.034;2024-03-02T04:22:40;100476.47;;;9.50
55038;BMP280;40937;53.594;10.034;2024-03-02T04:25:08;100483.28;;;9.51
55038;BMP280;40937;53.594;10.034;2024-03-02T04:27:35;100484.38;;;9.50
55038;BMP280;40937;53.594;10.034;2024-03-02T04:30:04;100480.56;;;9.46
55038;BMP280;40937;53.594;10.034;2024-03-02T04:32:31;100481.00;;;9.43
55038;BMP280;40937;53.594;10.034;2024-03-02T04:34:58;100486.41;;;9.48
55038;BMP280;40937;53.594;10.034;2024-03-02T04:37:25;100485.84;;;9.46
55038;BMP280;40937;53.594;10.034;2024-03-02T04:39:54;100490.09;;;9.47
55038;BMP280;40937;53.594;10.034;2024-03-02T04:42:21;100486.75;;;9.40
55038;BMP280;40937;53.594;10.034;2024-03-02T04:44:48;100489.38;;;9.40
55038;BMP280;40937;53.594;10.034;2024-03-02T04:47:15;100493.63;;;9.41
55038;BMP280;40937;53.594;10.034;2024-03-02T04:49:43;100489.97;;;9.42
55038;BMP280;40937;53.594;10.034;2024-03-02T04:52:10;100500.63;;;9.47
55038;BMP280;40937;53.594;10.034;2024-03-02T04:54:37;100494.19;;;9.43
55038;BMP280;40937;53.594;10.034;2024-03-02T04:57:29;100498.13;;;9.40
55038;BMP280;40937;53.594;10.034;2024-03-02T04:59:57;100503.69;;;9.44
55038;BMP280;40937;53.594;10.034;2024-03-02T05:02:24;100498.13;;;9.40
55038;BMP280;40937;53.594;10.034;2024-03-02T05:04:51;100497.63;;;9.43
55038;BMP280;40937;53.594;10.034;2024-03-02T05:07:18;100495.22;;;9.42
55038;BMP280;40937;53.594;10.034;2024-03-02T05:09:45;100492.16;;;9.45
55038;BMP280;40937;53.594;10.034;2024-03-02T05:12:14;100492.03;;;9.40
55038;BMP280;40937;53.594;10.034;2024-03-02T05:15:08;100496.28;;;9.41
55038;BMP280;40937;53.594;10.034;2024-03-02T05:17:36;100489.50;;;9.33
55038;BMP280;40937;53.594;10.034;2024-03-02T05:20:04;100486.06;;;9.32
55038;BMP280;40937;53.594;10.034;2024-03-02T05:22:31;100490.19;;;9.28
55038;BMP280;40937;53.594;10.034;2024-03-02T05:24:59;100483.44;;;9.32
55038;BMP280;40937;53.594;10.034;2024-03-02T05:27:27;100487.22;;;9.37
55038;BMP280;40937;53.594;10.034;2024-03-02T05:29:54;100493.41;;;9.30
55038;BMP280;40937;53.594;10.034;2024-03-02T05:32:23;100485.84;;;9.34
55038;BMP280;40937;53.594;10.034;2024-03-02T05:34:50;100480.22;;;9.30
55038;BMP280;40937;53.594;10.034;2024-03-02T05:37:17;100496.03;;;9.30
55038;BMP280;40937;53.594;10.034;2024-03-02T05:39:44;100495.09;;;9.25
55038;BMP280;40937;53.594;10.034;2024-03-02T05:42:11;100488.22;;;9.24
55038;BMP280;40937;53.594;10.034;2024-03-02T05:44:39;100498.31;;;9.27
55038;BMP280;40937;53.594;10.034;2024-03-02T05:47:06;100491.66;;;9.24
55038;BMP280;40937;53.594;10.034;2024-03-02T05:49:36;100502.78;;;9.26
55038;BMP280;40937;53.594;10.034;2024-03-02T05:52:03;100494.50;;;9.23
55038;BMP280;40937;53.594;10.034;2024-03-02T05:54:31;100490.63;;;9.25
55038;BMP280;40937;53.594;10.034;2024-03-02T05:56:58;100490.63;;;9.25
55038;BMP280;40937;53.594;10.034;2024-03-02T05:59:42;100492.69;;;9.23
55038;BMP280;40937;53.594;10.034;2024-03-02T06:02:09;100488.56;;;9.27
55038;BMP280;40937;53.594;10.034;2024-03-02T06:04:38;100484.22;;;9.21
55038;BMP280;40937;53.594;10.034;2024-03-02T06:07:05;100490.06;;;9.23
55038;BMP280;40937;53.594;10.034;2024-03-02T06:09:32;100501.72;;;9.27
55038;BMP280;40937;53.594;10.034;2024-03-02T06:12:00;100500.00;;;9.21
55038;BMP280;40937;53.594;10.034;2024-03-02T06:14:27;100497.97;;;9.23
55038;BMP280;40937;53.594;10.034;2024-03-02T06:16:54;100491.09;;;9.22
55038;BMP280;40937;53.594;10.034;2024-03-02T06:19:21;100493.47;;;9.24
55038;BMP280;40937;53.594;10.034;2024-03-02T06:21:50;100511.47;;;9.27
55038;BMP280;40937;53.594;10.034;2024-03-02T06:24:17;100504.38;;;9.27
55038;BMP280;40937;53.594;10.034;2024-03-02T06:26:44;100507.00;;;9.27
55038;BMP280;40937;53.594;10.034;2024-03-02T06:29:11;100513.75;;;9.23
55038;BMP280;40937;53.594;10.034;2024-03-02T06:31:38;100511.69;;;9.25
55038;BMP280;40937;53.594;10.034;2024-03-02T06:34:06;100511.38;;;9.22
55038;BMP280;40937;53.594;10.034;2024-03-02T06:36:34;100508.50;;;9.23
55038;BMP280;40937;53.594;10.034;2024-03-02T06:39:02;100496.81;;;9.19
55038;BMP280;40937;53.594;10.034;2024-03-02T06:41:30;100497.25;;;9.16
55038;BMP280;40937;53.594;10.034;2024-03-02T06:43:57;100499.66;;;9.18
55038;BMP280;40937;53.594;10.034;2024-03-02T06:46:25;100498.88;;;9.17
55038;BMP280;40937;53.594;10.034;2024-03-02T06:48:52;100501.25;;;9.07
55038;BMP280;40937;53.594;10.034;2024-03-02T06:51:19;100496.56;;;9.09
55038;BMP280;40937;53.594;10.034;2024-03-02T06:53:47;100499.78;;;9.11
55038;BMP280;40937;53.594;10.034;2024-03-02T06:56:15;100500.59;;;9.11
55038;BMP280;40937;53.594;10.034;2024-03-02T06:58:42;100498.50;;;9.13
55038;BMP280;40937;53.594;10.034;2024-03-02T07:01:09;100508.25;;;9.13
55038;BMP280;40937;53.594;10.034;2024-03-02T07:03:37;100509.56;;;9.04
55038;BMP280;40937;53.594;10.034;2024-03-02T07:06:05;100507.69;;;9.11
55038;BMP280;40937;53.594;10.034;2024-03-02T07:08:32;100511.09;;;9.11
55038;BMP280;40937;53.594;10.034;2024-03-02T07:11:00;100510.31;;;9.11
55038;BMP280;40937;53.594;10.034;2024-03-02T07:13:29;100502.41;;;9.11
55038;BMP280;40937;53.594;10.034;2024-03-02T07:15:56;100511.66;;;9.13
55038;BMP280;40937;53.594;10.034;2024-03-02T07:18:54;100523.00;;;9.14
55038;BMP280;40937;53.594;10.034;2024-03-02T07:21:22;100536.28;;;9.19
55038;BMP280;40937;53.594;10.034;2024-03-02T07:23:49;100528.41;;;9.19
55038;BMP280;40937;53.594;10.034;2024-03-02T07:26:17;100538.47;;;9.22
55038;BMP280;40937;53.594;10.034;2024-03-02T07:28:47;100542.94;;;9.22
55038;BMP280;40937;53.594;10.034;2024-03-02T07:31:15;100546.38;;;9.22
55038;BMP280;40937;53.594;10.034;2024-03-02T07:33:44;100537.22;;;9.25
55038;BMP280;40937;53.594;10.034;2024-03-02T07:36:11;100555.41;;;9.26
55038;BMP280;40937;53.594;10.034;2024-03-02T07:38:38;100553.34;;;9.28
55038;BMP280;40937;53.594;10.034;2024-03-02T07:41:07;100552.91;;;9.31
55038;BMP280;40937;53.594;10.034;2024-03-02T07:43:34;100552.13;;;9.31
55038;BMP280;40937;53.594;10.034;2024-03-02T07:46:03;100552.91;;;9.31
55038;BMP280;40937;53.594;10.034;2024-03-02T07:48:30;100553.34;;;9.28
55038;BMP280;40937;53.594;10.034;2024-03-02T07:50:57;100556.09;;;9.33
55038;BMP280;40937;53.594;10.034;2024-03-02T07:53:25;100558.06;;;9.38
55038;BMP280;40937;53.594;10.034;2024-03-02T07:55:52;100554.84;;;9.36
55038;BMP280;40937;53.594;10.034;2024-03-02T07:58:19;100552.34;;;9.41
55038;BMP280;40937;53.594;10.034;2024-03-02T08:00:47;100564.59;;;9.35
55038;BMP280;40937;53.594;10.034;2024-03-02T08:03:15;100573.50;;;9.34
55038;BMP280;40937;53.594;10.034;2024-03-02T08:05:44;100576.72;;;9.37
55038;BMP280;40937;53.594;10.034;2024-03-02T08:08:12;100570.53;;;9.43
55038;BMP280;40937;53.594;10.034;2024-03-02T08:10:39;100574.19;;;9.42
55038;BMP280;40937;53.594;10.034;2024-03-02T08:13:06;100581.06;;;9.43
55038;BMP280;40937;53.594;10.034;2024-03-02T08:15:33;100581.88;;;9.43
55038;BMP280;40937;53.594;10.034;2024-03-02T08:18:01;100578.09;;;9.51
55038;BMP280;40937;53.594;10.034;2024-03-02T08:20:29;100583.03;;;9.47
55038;BMP280;40937;53.594;10.034;2024-03-02T08:22:57;100585.88;;;9.46
55038;BMP280;40937;53.594;10.034;2024-03-02T08:25:24;100592.75;;;9.47
55038;BMP280;40937;53.594;10.034;2024-03-02T08:27:52;100596.06;;;9.42
55038;BMP280;40937;53.594;10.034;2024-03-02T08:30:19;100594.47;;;9.41
55038;BMP280;40937;53.594;10.034;2024-03-02T08:32:48;100589.56;;;9.45
55038;BMP280;40937;53.594;10.034;2024-03-02T08:35:17;100596.75;;;9.49
55038;BMP280;40937;53.594;10.034;2024-03-02T08:37:47;100593.88;;;9.51
55038;BMP280;40937;53.594;10.034;2024-03-02T08:40:15;100595.50;;;9.52
55038;BMP280;40937;53.594;10.034;2024-03-02T08:42:42;100592.31;;;9.50
55038;BMP280;40937;53.594;10.034;2024-03-02T08:45:09;100591.03;;;9.52
55038;BMP280;40937;53.594;10.034;2024-03-02T08:47:37;100595.75;;;9.50
55038;BMP280;40937;53.594;10.034;2024-03-02T08:50:05;100597.13;;;9.53
55038;BMP280;40937;53.594;10.034;2024-03-02T08:52:32;100601.50;;;9.59
55038;BMP280;40937;53.594;10.034;2024-03-02T08:55:01;100593.69;;;9.64
55038;BMP280;40937;53.594;10.034;2024-03-02T08:57:28;100593.44;;;9.54
55038;BMP280;40937;53.594;10.034;2024-03-02T08:59:55;100590.97;;;9.59
55038;BMP280;40937;53.594;10.034;2024-03-02T09:02:23;100589.66;;;9.62
55038;BMP280;40937;53.594;10.034;2024-03-02T09:04:51;100596.66;;;9.56
55038;BMP280;40937;53.594;10.034;2024-03-02T09:07:18;100598.16;;;9.64
55038;BMP280;40937;53.594;10.034;2024-03-02T09:09:45;100615.94;;;9.68
55038;BMP280;40937;53.594;10.034;2024-03-02T09:12:14;100610.75;;;9.73
55038;BMP280;40937;53.594;10.034;2024-03-02T09:14:41;100596.81;;;9.73
55038;BMP280;40937;53.594;10.034;2024-03-02T09:17:08;100595.44;;;9.82
55038;BMP280;40937;53.594;10.034;2024-03-02T09:19:37;100606.63;;;9.89
55038;BMP280;40937;53.594;10.034;2024-03-02T09:22:05;100605.41;;;9.92
55038;BMP280;40937;53.594;10.034;2024-03-02T09:24:32;100610.22;;;9.95
55038;BMP280;40937;53.594;10.034;2024-03-02T09:27:00;100608.13;;;9.97
55038;BMP280;40937;53.594;10.034;2024-03-02T09:29:28;100611.34;;;9.99
55038;BMP280;40937;53.594;10.034;2024-03-02T09:31:55;100600.94;;;10.04
55038;BMP280;40937;53.594;10.034;2024-03-02T09:34:23;100612.13;;;10.11
55038;BMP280;40937;53.594;10.034;2024-03-02T09:36:51;100603.53;;;10.16
55038;BMP280;40937;53.594;10.034;2024-03-02T09:39:18;100605.38;;;10.16
55038;BMP280;40937;53.594;10.034;2024-03-02T09:41:47;100613.75;;;10.12
55038;BMP280;40937;53.594;10.034;2024-03-02T09:44:14;100612.25;;;10.17
55038;BMP280;40937;53.594;10.034;2024-03-02T09:46:43;100603.41;;;10.23
55038;BMP280;40937;53.594;10.034;2024-03-02T09:49:13;100605.94;;;10.29
55038;BMP280;40937;53.594;10.034;2024-03-02T09:51:40;100604.91;;;10.30
55038;BMP280;40937;53.594;10.034;2024-03-02T09:54:08;100609.13;;;10.31
55038;BMP280;40937;53.594;10.034;2024-03-02T09:56:35;100612.00;;;10.30
55038;BMP280;40937;53.594;10.034;2024-03-02T09:59:02;100611.88;;;10.37
55038;BMP280;40937;53.594;10.034;2024-03-02T10:01:30;100608.09;;;10.44
55038;BMP280;40937;53.594;10.034;2024-03-02T10:04:00;100608.81;;;10.57
55038;BMP280;40937;53.594;10.034;2024-03-02T10:06:28;100604.13;;;10.59
55038;BMP280;40937;53.594;10.034;2024-03-02T10:08:56;100607.34;;;10.61
55038;BMP280;40937;53.594;10.034;2024-03-02T10:11:28;100602.06;;;10.61
55038;BMP280;40937;53.594;10.034;2024-03-02T10:14:07;100602.72;;;10.68
55038;BMP280;40937;53.594;10.034;2024-03-02T10:16:36;100607.84;;;10.75
55038;BMP280;40937;53.594;10.034;2024-03-02T10:19:18;100605.88;;;10.82
55038;BMP280;40937;53.594;10.034;2024-03-02T10:21:46;100606.44;;;10.84
55038;BMP280;40937;53.594;10.034;2024-03-02T10:24:13;100605.84;;;10.94
55038;BMP280;40937;53.594;10.034;2024-03-02T10:26:41;100606.41;;;10.96
55038;BMP280;40937;53.594;10.034;2024-03-02T10:29:09;100609.06;;;10.96
55038;BMP280;40937;53.594;10.034;2024-03-02T10:31:37;100609.38;;;10.99
55038;BMP280;40937;53.594;10.034;2024-03-02T10:34:05;100603.94;;;11.06
55038;BMP280;40937;53.594;10.034;2024-03-02T10:36:34;100599.56;;;11.11
55038;BMP280;40937;53.594;10.034;2024-03-02T10:39:02;100603.66;;;11.19
55038;BMP280;40937;53.594;10.034;2024-03-02T10:41:32;100613.72;;;11.22
55038;BMP280;40937;53.594;10.034;2024-03-02T10:44:01;100610.53;;;11.20
55038;BMP280;40937;53.594;10.034;2024-03-02T10:46:31;100607.50;;;11.28
55038;BMP280;40937;53.594;10.034;2024-03-02T10:49:00;100619.16;;;11.32
55038;BMP280;40937;53.594;10.034;2024-03-02T10:51:29;100608.94;;;11.36
55038;BMP280;40937;53.594;10.034;2024-03-02T10:53:59;100614.28;;;11.41
55038;BMP280;40937;53.594;10.034;2024-03-02T10:56:29;100613.84;;;11.44
55038;BMP280;40937;53.594;10.034;2024-03-02T10:59:02;100618.84;;;11.46
55038;BMP280;40937;53.594;10.034;2024-03-02T11:01:32;100611.97;;;11.45
55038;BMP280;40937;53.594;10.034;2024-03-02T11:04:02;100613.66;;;11.51
55038;BMP280;40937;53.594;10.034;2024-03-02T11:06:30;100614.84;;;11.60
55038;BMP280;40937;53.594;10.034;2024-03-02T11:09:06;100619.19;;;11.66
55038;BMP280;40937;53.594;10.034;2024-03-02T11:11:37;100622.47;;;11.74
55038;BMP280;40937;53.594;10.034;2024-03-02T11:14:07;100615.56;;;11.73
55038;BMP280;40937;53.594;10.034;2024-03-02T11:16:38;100615.06;;;11.76
55038;BMP280;40937;53.594;10.034;2024-03-02T11:19:09;100616.19;;;11.80
55038;BMP280;40937;53.594;10.034;2024-03-02T11:21:38;100624.59;;;11.77
55038;BMP280;40937;53.594;10.034;2024-03-02T11:24:32;100620.44;;;11.81
55038;BMP280;40937;53.594;10.034;2024-03-02T11:27:01;100617.63;;;11.87
55038;BMP280;40937;53.594;10.034;2024-03-02T11:29:47;100622.19;;;11.92
55038;BMP280;40937;53.594;10.034;2024-03-02T11:32:16;100624.34;;;11.95
55038;BMP280;40937;53.594;10.034;2024-03-02T11:34:46;100621.72;;;11.95
55038;BMP280;40937;53.594;10.034;2024-03-02T11:37:14;100626.81;;;12.02
55038;BMP280;40937;53.594;10.034;2024-03-02T11:39:45;100634.00;;;12.06
55038;BMP280;40937;53.594;10.034;2024-03-02T11:42:13;100632.47;;;12.10
55038;BMP280;40937;53.594;10.034;2024-03-02T11:44:43;100628.28;;;12.15
55038;BMP280;40937;53.594;10.034;2024-03-02T11:47:12;100632.84;;;12.19
55038;BMP280;40937;53.594;10.034;2024-03-02T11:49:42;100638.44;;;12.23
55038;BMP280;40937;53.594;10.034;2024-03-02T11:52:12;100635.31;;;12.26
55038;BMP280;40937;53.594;10.034;2024-03-02T11:54:44;100638.66;;;12.21
55038;BMP280;40937;53.594;10.034;2024-03-02T11:57:17;100626.59;;;12.25
55038;BMP280;40937;53.594;10.034;2024-03-02T11:59:45;100632.16;;;12.29
55038;BMP280;40937;53.594;10.034;2024-03-02T12:02:15;100620.59;;;12.35
55038;BMP280;40937;53.594;10.034;2024-03-02T12:04:44;100637.59;;;12.39
55038;BMP280;40937;53.594;10.034;2024-03-02T12:07:12;100631.50;;;12.39
55038;BMP280;40937;53.594;10.034;2024-03-02T12:09:45;100632.31;;;12.39
55038;BMP280;40937;53.594;10.034;2024-03-02T12:12:12;100631.50;;;12.39
55038;BMP280;40937;53.594;10.034;2024-03-02T12:14:51;100627.63;;;12.46
55038;BMP280;40937;53.594;10.034;2024-03-02T12:17:21;100622.88;;;12.48
55038;BMP280;40937;53.594;10.034;2024-03-02T12:19:48;100620.22;;;12.48
55038;BMP280;40937;53.594;10.034;2024-03-02T12:22:16;100618.63;;;12.47
55038;BMP280;40937;53.594;10.034;2024-03-02T12:24:45;100616.06;;;12.53
55038;BMP280;40937;53.594;10.034;2024-03-02T12:27:12;100617.13;;;12.57
55038;BMP280;40937;53.594;10.034;2024-03-02T12:29:40;100610.25;;;12.56
55038;BMP280;40937;53.594;10.034;2024-03-02T12:32:09;100616.66;;;12.60
55038;BMP280;40937;53.594;10.034;2024-03-02T12:34:39;100608.47;;;12.61
55038;BMP280;40937;53.594;10.034;2024-03-02T12:37:06;100605.56;;;12.63
55038;BMP280;40937;53.594;10.034;2024-03-02T12:39:33;100606.09;;;12.65
55038;BMP280;40937;53.594;10.034;2024-03-02T12:42:02;100608.25;;;12.68
55038;BMP280;40937;53.594;10.034;2024-03-02T12:44:29;100605.34;;;12.69
55038;BMP280;40937;53.594;10.034;2024-03-02T12:46:57;100602.69;;;12.69
55038;BMP280;40937;53.594;10.034;2024-03-02T12:49:25;100600.63;;;12.72
55038;BMP280;40937;53.594;10.034;2024-03-02T12:51:54;100604.09;;;12.77
55038;BMP280;40937;53.594;10.034;2024-03-02T12:54:23;100601.56;;;12.82
55038;BMP280;40937;53.594;10.034;2024-03-02T12:56:51;100604.44;;;12.81
55038;BMP280;40937;53.594;10.034;2024-03-02T12:59:21;100605.75;;;12.83
55038;BMP280;40937;53.594;10.034;2024-03-02T13:01:52;100603.69;;;12.85
55038;BMP280;40937;53.594;10.034;2024-03-02T13:04:22;100601.56;;;12.87
55038;BMP280;40937;53.594;10.034;2024-03-02T13:06:52;100598.69;;;12.89
55038;BMP280;40937;53.594;10.034;2024-03-02T13:09:20;100596.84;;;12.89
55038;BMP280;40937;53.594;10.034;2024-03-02T13:11:48;100595.53;;;12.92
55038;BMP280;40937;53.594;10.034;2024-03-02T13:14:16;100600.78;;;12.87
55038;BMP280;40937;53.594;10.034;2024-03-02T13:16:44;100599.72;;;12.88
55038;BMP280;40937;53.594;10.034;2024-03-02T13:19:13;100596.28;;;12.87
55038;BMP280;40937;53.594;10.034;2024-03-02T13:21:40;100595.78;;;12.90
55038;BMP280;40937;53.594;10.034;2024-03-02T13:24:09;100596.78;;;12.84
55038;BMP280;40937;53.594;10.034;2024-03-02T13:26:36;100593.88;;;12.86
55038;BMP280;40937;53.594;10.034;2024-03-02T13:29:03;100592.88;;;12.92
55038;BMP280;40937;53.594;10.034;2024-03-02T13:31:30;100597.38;;;12.92
55038;BMP280;40937;53.594;10.034;2024-03-02T13:33:57;100585.78;;;12.98
55038;BMP280;40937;53.594;10.034;2024-03-02T13:36:25;100589.19;;;12.93
55038;BMP280;40937;53.594;10.034;2024-03-02T13:38:52;100591.59;;;12.95
55038;BMP280;40937;53.594;10.034;2024-03-02T13:41:21;100585.78;;;12.98
55038;BMP280;40937;53.594;10.034;2024-03-02T13:43:48;100591.06;;;12.98
55038;BMP280;40937;53.594;10.034;2024-03-02T13:46:15;100585.78;;;12.98
55038;BMP280;40937;53.594;10.034;2024-03-02T13:48:42;100576.78;;;12.99
55038;BMP280;40937;53.594;10.034;2024-03-02T13:51:10;100578.38;;;13.00
55038;BMP280;40937;53.594;10.034;2024-03-02T13:53:37;100581.56;;;13.02
55038;BMP280;40937;53.594;10.034;2024-03-02T13:56:05;100588.47;;;13.03
55038;BMP280;40937;53.594;10.034;2024-03-02T13:58:34;100573.69;;;13.07